Time;durP1;ratioP1;P1;durP2;ratioP2;P2;SDS_P1;SDS_P2;PMS_P1;PMS_P2;Temp;Humidity;BMP_temperature;BMP_pressure;BME280_temperature;BME280_humidity;BME280_pressure;Samples;Min_cycle;Max_cycle;Signal;HPM_P1;HPM_P2
2021/12/08 00:00:06;;;;;;;;;;;;;;;10.43;36.42;99041.28;4445464;32;34953;-84
2021/12/08 00:02:33;;;;;;;;;;;;;;;10.49;36.43;99053.25;4435432;32;32769;-84
2021/12/08 00:05:01;;;;;;;;;;;;;;;10.37;36.41;99055.19;4433238;32;34241;-79
2021/12/08 00:07:29;;;;;;;;;;;;;;;10.60;35.95;99050.53;4455093;32;34225;-81
2021/12/08 00:13:03;;;;;;;;;;;;;;;10.49;36.12;99051.44;4431560;32;33484;-84
2021/12/08 00:15:32;;;;;;;;;;;;;;;10.63;35.62;99058.31;4452646;32;33988;-79
2021/12/08 00:18:00;;;;;;;;;;;;;;;10.44;35.96;99056.34;4453768;32;34261;-82
2021/12/08 00:20:30;;;;;;;;;;;;;;;10.36;35.95;99056.13;4440494;32;33380;-81
2021/12/08 00:22:58;;;;;;;;;;;;;;;10.31;36.30;99058.38;4462980;32;34284;-82
2021/12/08 00:25:26;;;;;;;;;;;;;;;10.21;36.43;99055.59;4457461;32;34239;-84
2021/12/08 00:27:53;;;;;;;;;;;;;;;10.40;35.65;99062.06;4436040;32;33902;-84
2021/12/08 00:30:20;;;;;;;;;;;;;;;10.33;35.94;99067.09;4456300;32;33294;-88
2021/12/08 00:32:48;;;;;;;;;;;;;;;10.08;36.76;99070.97;4447332;32;35607;-80
2021/12/08 00:35:16;;;;;;;;;;;;;;;10.21;36.31;99076.16;4464556;32;34400;-80
2021/12/08 00:37:43;;;;;;;;;;;;;;;10.32;36.53;99078.78;4456063;32;34182;-79
2021/12/08 00:40:13;;;;;;;;;;;;;;;10.46;36.26;99072.25;4451174;32;33538;-81
2021/12/08 00:42:40;;;;;;;;;;;;;;;10.42;35.92;99066.31;4452385;32;35878;-81
2021/12/08 00:45:08;;;;;;;;;;;;;;;10.30;36.24;99067.34;4436454;32;34442;-80
2021/12/08 00:47:36;;;;;;;;;;;;;;;10.44;36.28;99079.59;4452643;32;34539;-82
2021/12/08 00:50:05;;;;;;;;;;;;;;;10.33;36.37;99080.47;4454070;32;33846;-80
2021/12/08 00:52:32;;;;;;;;;;;;;;;9.99;37.21;99075.25;4452838;32;35216;-80
2021/12/08 00:55:01;;;;;;;;;;;;;;;10.36;36.62;99074.84;4439286;32;34061;-80
2021/12/08 00:57:28;;;;;;;;;;;;;;;10.44;36.50;99079.59;4448993;32;34031;-81
2021/12/08 00:59:56;;;;;;;;;;;;;;;10.47;36.01;99082.84;4451967;32;33440;-81
2021/12/08 01:02:26;;;;;;;;;;;;;;;10.29;36.78;99078.19;4449877;32;34134;-83
2021/12/08 01:04:54;;;;;;;;;;;;;;;10.37;36.02;99075.69;4451216;32;33399;-80
2021/12/08 01:07:21;;;;;;;;;;;;;;;10.33;36.17;99080.47;4449961;32;35457;-80
2021/12/08 01:09:49;;;;;;;;;;;;;;;10.26;36.51;99081.97;4452583;32;33382;-82
2021/12/08 01:12:16;;;;;;;;;;;;;;;10.41;35.77;99074.50;4438841;32;35000;-80
2021/12/08 01:14:44;;;;;;;;;;;;;;;10.23;36.49;99075.00;4454210;32;35345;-79
2021/12/08 01:17:14;;;;;;;;;;;;;;;10.36;36.12;99082.88;4450738;32;34219;-79
2021/12/08 01:19:41;;;;;;;;;;;;;;;9.62;37.92;99080.09;4455939;32;33744;-79
2021/12/08 01:22:08;;;;;;;;;;;;;;;10.06;36.87;99061.38;4456348;32;34074;-78
2021/12/08 01:24:36;;;;;;;;;;;;;;;10.24;36.09;99067.84;4455286;32;34258;-77
2021/12/08 01:27:03;;;;;;;;;;;;;;;10.37;35.76;99052.50;4450028;32;35406;-78
2021/12/08 01:29:31;;;;;;;;;;;;;;;10.19;36.21;99048.66;4447332;32;33514;-79
2021/12/08 01:31:58;;;;;;;;;;;;;;;10.38;36.15;99054.19;4450398;32;34276;-77
2021/12/08 01:34:25;;;;;;;;;;;;;;;10.46;35.54;99051.72;4445027;32;33889;-77
2021/12/08 01:36:53;;;;;;;;;;;;;;;10.48;35.08;99041.72;4458399;32;34912;-81
2021/12/08 01:39:20;;;;;;;;;;;;;;;10.44;35.24;99034.09;4428982;32;853167;-78
2021/12/08 01:41:48;;;;;;;;;;;;;;;10.31;35.81;99028.09;4460449;32;33841;-80
2021/12/08 01:47:02;;;;;;;;;;;;;;;10.54;35.12;99034.16;4472824;32;34461;-78
2021/12/08 01:49:29;;;;;;;;;;;;;;;10.54;34.53;99023.47;4454655;32;34481;-77
2021/12/08 01:51:56;;;;;;;;;;;;;;;10.00;36.29;99020.78;4464939;32;34989;-77
2021/12/08 01:54:24;;;;;;;;;;;;;;;10.09;36.05;99021.00;4451765;32;35400;-77
2021/12/08 01:56:51;;;;;;;;;;;;;;;10.06;36.45;99018.59;4472468;32;33991;-78
2021/12/08 01:59:19;;;;;;;;;;;;;;;10.00;36.32;99018.13;4458875;32;33642;-80
2021/12/08 02:01:46;;;;;;;;;;;;;;;9.99;36.67;99011.09;4461644;32;32972;-78
2021/12/08 02:04:14;;;;;;;;;;;;;;;9.75;36.82;99008.63;4473868;32;34313;-80
2021/12/08 02:06:42;;;;;;;;;;;;;;;10.23;35.93;99008.16;4467845;32;34535;-79
2021/12/08 02:09:11;;;;;;;;;;;;;;;10.04;36.04;99011.53;4466893;32;34865;-80
2021/12/08 02:11:39;;;;;;;;;;;;;;;10.11;35.90;99005.66;4453423;32;32581;-80
2021/12/08 02:14:06;;;;;;;;;;;;;;;10.15;35.43;98997.28;4455880;32;34295;-79
2021/12/08 02:16:34;;;;;;;;;;;;;;;10.05;35.38;98985.66;4454850;32;34467;-80
2021/12/08 02:19:01;;;;;;;;;;;;;;;10.09;35.80;98981.75;4467331;32;33667;-80
2021/12/08 02:21:32;;;;;;;;;;;;;;;10.12;35.67;98978.81;4455851;32;33808;-78
2021/12/08 02:24:01;;;;;;;;;;;;;;;10.09;35.64;98984.41;4456641;32;33162;-78
2021/12/08 02:26:28;;;;;;;;;;;;;;;10.08;35.12;98982.75;4455519;32;33784;-78
2021/12/08 02:28:57;;;;;;;;;;;;;;;10.02;35.57;98989.44;4460665;32;33570;-78
2021/12/08 02:31:36;;;;;;;;;;;;;;;9.76;35.89;98996.97;4461535;32;34278;-80
2021/12/08 02:47:54;;;;;;;;;;;;;;;9.84;35.74;98999.00;4470290;32;34403;-78
2021/12/08 02:50:27;;;;;;;;;;;;;;;9.69;36.35;99006.47;4456169;32;33467;-77
2021/12/08 02:52:54;;;;;;;;;;;;;;;9.73;36.17;99017.78;4470861;32;33957;-79
2021/12/08 02:55:26;;;;;;;;;;;;;;;9.65;36.01;99013.03;4455040;32;34389;-78
2021/12/08 02:57:57;;;;;;;;;;;;;;;9.88;35.74;99026.31;4453625;32;34307;-77
2021/12/08 03:00:26;;;;;;;;;;;;;;;10.22;34.97;99024.34;4455736;32;34612;-77
2021/12/08 03:02:55;;;;;;;;;;;;;;;10.30;33.80;99021.88;4472048;32;35074;-78
2021/12/08 03:05:22;;;;;;;;;;;;;;;10.26;34.06;99023.97;4455638;32;35270;-77
2021/12/08 03:07:50;;;;;;;;;;;;;;;10.24;34.20;99017.03;4443203;32;34369;-78
2021/12/08 03:10:19;;;;;;;;;;;;;;;10.13;34.65;99017.09;4473058;32;33672;-78
2021/12/08 03:12:46;;;;;;;;;;;;;;;10.18;34.12;99021.09;4453626;32;34297;-78
2021/12/08 03:15:14;;;;;;;;;;;;;;;10.19;34.13;99027.28;4471360;32;33983;-79
2021/12/08 03:17:44;;;;;;;;;;;;;;;9.83;35.26;99029.38;4459504;32;33747;-81
2021/12/08 03:20:15;;;;;;;;;;;;;;;9.74;35.60;99020.31;4461047;32;32171;-82
2021/12/08 03:22:46;;;;;;;;;;;;;;;9.87;35.02;99014.78;4449357;32;34082;-77
2021/12/08 03:25:17;;;;;;;;;;;;;;;9.60;35.77;99019.72;4461112;32;32836;-77
2021/12/08 03:27:52;;;;;;;;;;;;;;;9.74;34.32;99019.47;4471415;32;35280;-76
2021/12/08 03:30:26;;;;;;;;;;;;;;;9.48;35.03;99019.78;4477055;32;32326;-77
2021/12/08 03:32:58;;;;;;;;;;;;;;;9.14;35.93;99016.31;4474977;32;33953;-78
2021/12/08 03:35:25;;;;;;;;;;;;;;;9.39;34.91;99007.16;4460264;32;34386;-78
2021/12/08 03:37:53;;;;;;;;;;;;;;;9.07;35.84;99013.28;4472958;32;34214;-78
2021/12/08 03:40:24;;;;;;;;;;;;;;;9.34;34.92;99006.69;4460561;32;33567;-78
2021/12/08 03:42:53;;;;;;;;;;;;;;;9.16;35.53;99014.38;4448418;32;34934;-79
2021/12/08 03:45:26;;;;;;;;;;;;;;;9.45;34.65;99003.16;4469337;32;34470;-79
2021/12/08 03:48:02;;;;;;;;;;;;;;;9.22;36.55;99005.88;4455120;32;33995;-77
2021/12/08 03:50:31;;;;;;;;;;;;;;;9.03;35.18;99008.34;4477380;32;34508;-78
2021/12/08 03:52:58;;;;;;;;;;;;;;;8.94;36.21;99006.38;4458268;32;34163;-78
2021/12/08 03:55:26;;;;;;;;;;;;;;;8.91;35.73;98998.62;4469397;32;34388;-78
2021/12/08 03:57:53;;;;;;;;;;;;;;;8.93;35.63;99002.03;4471399;32;34433;-77
2021/12/08 04:00:22;;;;;;;;;;;;;;;9.05;35.24;99009.91;4476865;32;33545;-76
2021/12/08 04:02:50;;;;;;;;;;;;;;;8.78;35.85;99006.75;4457123;32;33776;-75
2021/12/08 04:05:20;;;;;;;;;;;;;;;8.90;35.66;99004.94;4471277;32;32907;-75
2021/12/08 04:07:48;;;;;;;;;;;;;;;8.83;36.07;99007.25;4469385;32;34373;-77
2021/12/08 04:10:18;;;;;;;;;;;;;;;8.46;37.07;99014.62;4451791;32;33426;-79
2021/12/08 04:12:47;;;;;;;;;;;;;;;7.90;38.08;99013.47;4474007;32;33049;-81
2021/12/08 04:15:15;;;;;;;;;;;;;;;8.62;36.17;99009.78;4454262;32;35352;-78
2021/12/08 04:17:44;;;;;;;;;;;;;;;8.43;36.58;99013.03;4457673;32;35370;-77
2021/12/08 04:20:14;;;;;;;;;;;;;;;8.51;36.19;99018.63;4469339;32;34463;-77
2021/12/08 04:22:43;;;;;;;;;;;;;;;7.53;38.74;99017.19;4474357;32;33922;-77
2021/12/08 04:25:12;;;;;;;;;;;;;;;8.52;36.08;99019.47;4472717;32;34334;-78
2021/12/08 04:27:40;;;;;;;;;;;;;;;8.54;36.18;99007.72;4444338;32;34449;-77
2021/12/08 04:30:09;;;;;;;;;;;;;;;8.51;36.16;99002.63;4469693;32;33747;-77
2021/12/08 04:32:37;;;;;;;;;;;;;;;8.64;36.05;98997.19;4470731;32;33698;-78
2021/12/08 04:35:09;;;;;;;;;;;;;;;8.68;36.17;99000.47;4468214;32;35399;-79
2021/12/08 04:37:39;;;;;;;;;;;;;;;8.63;35.90;99006.12;4466311;32;34286;-79
2021/12/08 04:40:18;;;;;;;;;;;;;;;8.62;35.56;99005.28;4454057;32;33993;-82
2021/12/08 04:46:01;;;;;;;;;;;;;;;8.76;35.60;99011.34;4428586;32;34916;-83
2021/12/08 05:09:47;;;;;;;;;;;;;;;9.35;33.97;99005.72;4474536;32;32426;-79
2021/12/08 05:12:23;;;;;;;;;;;;;;;9.38;34.43;98997.47;4457534;32;32178;-79
2021/12/08 05:14:51;;;;;;;;;;;;;;;9.22;34.62;99023.72;4474482;32;34109;-78
2021/12/08 05:17:20;;;;;;;;;;;;;;;9.45;34.29;99027.19;4470833;32;35227;-79
2021/12/08 05:19:49;;;;;;;;;;;;;;;9.38;34.10;99015.31;4448056;32;33362;-79
2021/12/08 05:22:19;;;;;;;;;;;;;;;9.65;32.63;99009.53;4458660;32;33298;-80
2021/12/08 05:24:47;;;;;;;;;;;;;;;9.32;33.98;99017.50;4446021;32;34406;-80
2021/12/08 05:27:39;;;;;;;;;;;;;;;9.41;33.13;99015.91;4460766;32;35152;-80
2021/12/08 05:30:10;;;;;;;;;;;;;;;9.22;33.15;99010.37;4470227;32;34138;-81
2021/12/08 05:32:37;;;;;;;;;;;;;;;9.36;32.42;99002.06;4458675;32;33673;-82
2021/12/08 05:35:06;;;;;;;;;;;;;;;9.29;33.37;99007.06;4451669;32;33109;-82
2021/12/08 05:37:34;;;;;;;;;;;;;;;9.10;34.14;99005.03;4476928;32;32817;-81
2021/12/08 05:40:05;;;;;;;;;;;;;;;9.26;33.65;98983.28;4463994;32;34554;-81
2021/12/08 05:42:33;;;;;;;;;;;;;;;9.54;33.07;98987.22;4474890;32;33893;-81
2021/12/08 05:45:08;;;;;;;;;;;;;;;9.56;33.03;98990.59;4480796;32;34243;-81
2021/12/08 05:47:36;;;;;;;;;;;;;;;9.27;34.36;99002.81;4462816;32;34321;-81
2021/12/08 05:50:05;;;;;;;;;;;;;;;9.25;34.54;99002.97;4459979;32;33016;-82
2021/12/08 05:52:32;;;;;;;;;;;;;;;9.16;35.14;99010.87;4462759;32;33580;-78
2021/12/08 05:54:59;;;;;;;;;;;;;;;8.69;35.39;99004.81;4474843;32;34113;-78
2021/12/08 05:57:32;;;;;;;;;;;;;;;9.06;35.35;99008.94;4475659;32;32839;-79
2021/12/08 06:00:01;;;;;;;;;;;;;;;9.10;35.00;99009.53;4479710;32;35522;-75
2021/12/08 06:02:32;;;;;;;;;;;;;;;9.61;33.89;99006.25;4466233;32;33679;-75
2021/12/08 06:05:04;;;;;;;;;;;;;;;9.38;34.08;99005.47;4477501;32;34102;-75
2021/12/08 06:07:32;;;;;;;;;;;;;;;9.65;33.54;99009.53;4475782;32;34232;-77
2021/12/08 06:10:03;;;;;;;;;;;;;;;10.14;32.33;99010.75;4462661;32;34500;-76
2021/12/08 06:12:31;;;;;;;;;;;;;;;10.30;31.08;99008.50;4458961;32;33680;-77
2021/12/08 06:14:58;;;;;;;;;;;;;;;10.28;31.38;99017.66;4469213;32;34275;-78
2021/12/08 06:17:28;;;;;;;;;;;;;;;10.22;31.48;99016.31;4478552;32;34389;-82
2021/12/08 06:19:55;;;;;;;;;;;;;;;10.18;32.31;99018.41;4461555;32;34562;-81
2021/12/08 06:22:23;;;;;;;;;;;;;;;10.26;31.72;99017.78;4450061;32;33589;-80
2021/12/08 06:24:51;;;;;;;;;;;;;;;10.50;30.70;99012.19;4464371;32;34919;-80
2021/12/08 06:27:21;;;;;;;;;;;;;;;10.23;31.85;99012.66;4476106;32;35380;-81
2021/12/08 06:29:49;;;;;;;;;;;;;;;10.17;32.62;99013.19;4458657;32;34424;-81
2021/12/08 06:32:17;;;;;;;;;;;;;;;9.95;32.50;99012.34;4478775;32;33537;-82
2021/12/08 06:34:46;;;;;;;;;;;;;;;9.99;32.61;99016.44;4462576;32;34000;-81
2021/12/08 06:37:16;;;;;;;;;;;;;;;9.68;33.44;99020.81;4477189;32;32891;-82
2021/12/08 06:39:48;;;;;;;;;;;;;;;10.34;31.79;99027.84;4463524;32;34560;-82
2021/12/08 06:42:18;;;;;;;;;;;;;;;10.54;31.60;99018.09;4478917;32;33449;-80
2021/12/08 06:44:47;;;;;;;;;;;;;;;11.10;30.87;99015.81;4455782;32;32603;-83
2021/12/08 06:47:20;;;;;;;;;;;;;;;11.97;28.43;99014.28;4463357;32;34113;-82
2021/12/08 06:49:49;;;;;;;;;;;;;;;12.35;28.00;99014.25;4462377;32;34911;-81
2021/12/08 06:52:17;;;;;;;;;;;;;;;12.95;26.64;99013.97;4465889;32;33625;-82
2021/12/08 06:54:50;;;;;;;;;;;;;;;13.14;27.12;99013.03;4462076;32;33839;-81
2021/12/08 06:57:25;;;;;;;;;;;;;;;13.42;26.64;99018.44;4461364;32;35002;-81
2021/12/08 07:00:05;;;;;;;;;;;;;;;13.83;26.33;99016.16;4462278;32;34537;-81
2021/12/08 07:05:30;;;;;;;;;;;;;;;13.97;26.15;99013.81;4476007;32;35095;-82
2021/12/08 07:08:15;;;;;;;;;;;;;;;14.16;25.81;99003.88;4464945;32;34535;-82
2021/12/08 07:10:46;;;;;;;;;;;;;;;13.81;26.54;99005.56;4454854;32;34372;-81
2021/12/08 07:13:22;;;;;;;;;;;;;;;13.09;27.61;99003.72;4464563;32;32256;-82
2021/12/08 07:16:00;;;;;;;;;;;;;;;13.74;25.50;98999.97;4465772;32;34307;-80
2021/12/08 07:18:39;;;;;;;;;;;;;;;13.40;27.64;98998.94;4455650;32;34393;-81
2021/12/08 07:21:08;;;;;;;;;;;;;;;13.72;27.31;99004.63;4457638;32;34582;-81
2021/12/08 07:23:53;;;;;;;;;;;;;;;13.69;26.76;99004.94;4473984;32;34568;-81
2021/12/08 07:26:23;;;;;;;;;;;;;;;13.64;26.62;99007.25;4474117;32;33710;-81
2021/12/08 07:28:51;;;;;;;;;;;;;;;14.02;25.20;99005.25;4459202;32;34454;-80
2021/12/08 07:31:20;;;;;;;;;;;;;;;14.76;24.36;99006.66;4471842;32;34531;-81
2021/12/08 07:33:48;;;;;;;;;;;;;;;15.53;23.59;98995.87;4463155;32;33625;-81
2021/12/08 07:36:17;;;;;;;;;;;;;;;15.57;24.29;99005.34;4457408;32;32306;-81
2021/12/08 07:38:46;;;;;;;;;;;;;;;15.82;23.41;98998.16;4475646;32;35299;-81
2021/12/08 07:41:19;;;;;;;;;;;;;;;16.16;23.69;99005.28;4473682;32;35314;-81
2021/12/08 07:43:48;;;;;;;;;;;;;;;15.59;24.04;99006.84;4461223;32;33431;-81
2021/12/08 07:46:23;;;;;;;;;;;;;;;15.46;25.04;99009.19;4475909;32;34125;-81
2021/12/08 07:48:53;;;;;;;;;;;;;;;16.26;22.95;99011.38;4459711;32;34338;-81
2021/12/08 07:51:23;;;;;;;;;;;;;;;16.57;23.07;99013.38;4476425;32;35405;-81
2021/12/08 07:53:51;;;;;;;;;;;;;;;16.47;23.49;99009.00;4457313;32;34763;-81
2021/12/08 07:56:19;;;;;;;;;;;;;;;16.53;22.88;99020.97;4467184;32;34008;-81
2021/12/08 07:58:52;;;;;;;;;;;;;;;16.64;22.79;99019.78;4457889;32;34776;-82
2021/12/08 08:01:25;;;;;;;;;;;;;;;16.46;23.66;99022.66;4448018;32;33030;-81
2021/12/08 08:03:53;;;;;;;;;;;;;;;16.39;23.90;99013.56;4461540;32;33561;-80
2021/12/08 08:06:27;;;;;;;;;;;;;;;16.19;23.88;99013.91;4461454;32;33271;-78
2021/12/08 08:08:55;;;;;;;;;;;;;;;15.90;24.82;99017.06;4472028;32;35454;-78
2021/12/08 08:11:24;;;;;;;;;;;;;;;15.91;24.38;99018.75;4460580;32;35162;-78
2021/12/08 08:13:52;;;;;;;;;;;;;;;16.27;24.24;99013.88;4457570;32;34624;-78
2021/12/08 08:16:21;;;;;;;;;;;;;;;16.64;24.72;99015.22;4474462;32;34061;-78
2021/12/08 08:18:52;;;;;;;;;;;;;;;16.70;24.62;99021.81;4459805;32;35466;-78
2021/12/08 08:21:26;;;;;;;;;;;;;;;17.16;23.99;99020.19;4475062;32;34472;-78
2021/12/08 08:23:54;;;;;;;;;;;;;;;17.54;23.05;99027.63;4464229;32;33608;-78
2021/12/08 08:26:23;;;;;;;;;;;;;;;17.75;22.96;99025.13;4466474;32;35158;-78
2021/12/08 08:28:52;;;;;;;;;;;;;;;17.63;22.72;99032.00;4470598;32;34395;-78
2021/12/08 08:31:21;;;;;;;;;;;;;;;17.06;23.89;99029.50;4474498;32;34423;-79
2021/12/08 08:33:50;;;;;;;;;;;;;;;16.64;24.90;99022.47;4473479;32;33708;-82
2021/12/08 08:36:18;;;;;;;;;;;;;;;16.12;25.55;99033.66;4461509;32;32590;-81
2021/12/08 08:38:56;;;;;;;;;;;;;;;16.72;24.82;99028.69;4459272;32;33907;-81
2021/12/08 08:41:35;;;;;;;;;;;;;;;16.51;25.49;99029.25;4455671;32;35326;-81
2021/12/08 08:44:12;;;;;;;;;;;;;;;16.11;25.86;99026.53;4459238;32;33422;-77
2021/12/08 08:46:41;;;;;;;;;;;;;;;15.70;26.58;99024.63;4459265;32;32835;-80
2021/12/08 08:49:10;;;;;;;;;;;;;;;15.22;27.48;99025.28;4479613;32;33569;-81
2021/12/08 08:51:43;;;;;;;;;;;;;;;14.96;28.11;99031.56;4456150;32;34434;-85
2021/12/08 08:54:13;;;;;;;;;;;;;;;14.86;27.80;99028.09;4465865;32;33738;-88
2021/12/08 08:56:42;;;;;;;;;;;;;;;14.78;28.63;99023.53;4448913;32;35138;-87
2021/12/08 08:59:13;;;;;;;;;;;;;;;15.16;28.14;99031.31;4451165;32;34741;-86
2021/12/08 09:01:45;;;;;;;;;;;;;;;16.66;26.27;99026.72;4447571;32;33556;-84
2021/12/08 09:04:14;;;;;;;;;;;;;;;17.50;24.92;99019.03;4461789;32;32918;-81
2021/12/08 09:06:44;;;;;;;;;;;;;;;17.79;24.93;99010.28;4448960;32;34283;-81
2021/12/08 09:09:13;;;;;;;;;;;;;;;18.72;23.46;98998.38;4472816;32;35381;-84
2021/12/08 09:11:42;;;;;;;;;;;;;;;17.23;24.94;99007.63;4455361;32;34638;-81
2021/12/08 09:14:15;;;;;;;;;;;;;;;17.23;25.04;99007.63;4446586;32;32684;-83
2021/12/08 09:16:44;;;;;;;;;;;;;;;17.03;25.72;99008.25;4441485;32;35313;-81
2021/12/08 09:19:14;;;;;;;;;;;;;;;17.66;25.92;99007.28;4451611;32;33130;-80
2021/12/08 09:21:49;;;;;;;;;;;;;;;17.51;25.08;99003.63;4474903;32;33373;-80
2021/12/08 09:24:49;;;;;;;;;;;;;;;17.84;25.10;99009.72;4476243;32;32348;-78
2021/12/08 09:27:19;;;;;;;;;;;;;;;18.08;24.74;99006.03;4463921;32;34141;-78
2021/12/08 09:29:50;;;;;;;;;;;;;;;18.99;23.40;99006.88;4459262;32;33254;-78
2021/12/08 09:32:21;;;;;;;;;;;;;;;17.51;25.43;99003.63;4460483;32;33648;-76
2021/12/08 09:34:55;;;;;;;;;;;;;;;17.36;25.97;98998.12;4472040;32;33632;-82
2021/12/08 09:37:47;;;;;;;;;;;;;;;16.50;26.93;98995.16;4465805;32;34342;-79
2021/12/08 09:40:32;;;;;;;;;;;;;;;16.99;26.01;98989.66;4460577;32;35295;-83
2021/12/08 09:43:04;;;;;;;;;;;;;;;18.60;24.48;98992.50;4461332;32;35267;-84
2021/12/08 09:45:33;;;;;;;;;;;;;;;18.78;24.29;98985.91;4443344;32;32646;-83
2021/12/08 09:48:04;;;;;;;;;;;;;;;19.32;23.52;98974.78;4454624;32;34172;-83
2021/12/08 09:50:36;;;;;;;;;;;;;;;19.61;22.53;98973.03;4439330;32;34420;-84
2021/12/08 09:53:04;;;;;;;;;;;;;;;19.19;23.75;98972.72;4451317;32;35149;-84
2021/12/08 09:55:35;;;;;;;;;;;;;;;18.96;23.45;98972.84;4444322;32;33674;-82
2021/12/08 09:58:04;;;;;;;;;;;;;;;19.76;22.58;98977.41;4459431;32;32590;-84
2021/12/08 10:00:34;;;;;;;;;;;;;;;20.45;21.43;98973.25;4441664;32;34274;-83
2021/12/08 10:03:04;;;;;;;;;;;;;;;19.50;22.38;98967.06;4433533;32;32919;-82
2021/12/08 10:05:33;;;;;;;;;;;;;;;18.99;22.97;98961.62;4457852;32;33915;-80
2021/12/08 10:08:03;;;;;;;;;;;;;;;18.69;23.51;98958.03;4458353;32;35276;-83
2021/12/08 10:10:30;;;;;;;;;;;;;;;20.22;21.83;98958.03;4475998;32;34376;-83
2021/12/08 10:12:58;;;;;;;;;;;;;;;20.93;20.94;98951.66;4453536;32;34138;-81
2021/12/08 10:15:26;;;;;;;;;;;;;;;20.29;21.81;98954.50;4435948;32;32066;-85
2021/12/08 10:17:55;;;;;;;;;;;;;;;19.42;22.80;98939.19;4448472;32;34315;-79
2021/12/08 10:20:29;;;;;;;;;;;;;;;18.32;23.92;98948.91;4474183;32;33449;-79
2021/12/08 10:23:12;;;;;;;;;;;;;;;20.25;21.76;98946.75;4476699;32;34221;-87
2021/12/08 10:25:44;;;;;;;;;;;;;;;20.33;21.67;98947.66;4476097;32;34093;-85
2021/12/08 10:28:17;;;;;;;;;;;;;;;19.98;22.01;98940.25;4463899;32;32365;-78
2021/12/08 10:30:53;;;;;;;;;;;;;;;17.80;24.32;98941.56;4459608;32;33732;-78
2021/12/08 10:36:44;;;;;;;;;;;;;;;18.82;23.81;98933.87;4468470;32;33160;-82
2021/12/08 10:39:14;;;;;;;;;;;;;;;17.96;24.87;98932.50;4459923;32;32726;-77
2021/12/08 10:41:44;;;;;;;;;;;;;;;15.84;27.99;98920.59;4478081;32;34352;-84
2021/12/08 10:44:36;;;;;;;;;;;;;;;16.79;26.72;98926.22;4475186;32;34953;-79
2021/12/08 10:47:03;;;;;;;;;;;;;;;16.54;27.10;98917.31;4473800;32;33719;-78
2021/12/08 10:54:45;;;;;;;;;;;;;;;15.79;28.87;98907.62;4459218;32;33536;-77
2021/12/08 10:57:22;;;;;;;;;;;;;;;17.29;26.45;98914.16;4460650;32;33713;-79
2021/12/08 10:59:55;;;;;;;;;;;;;;;15.90;27.78;98900.19;4472870;32;35186;-80
2021/12/08 11:02:35;;;;;;;;;;;;;;;16.41;27.32;98895.41;4461863;32;35560;-80
2021/12/08 11:05:03;;;;;;;;;;;;;;;16.94;27.35;98889.31;4473212;32;32685;-77
2021/12/08 11:07:31;;;;;;;;;;;;;;;15.40;28.26;98893.03;4451463;32;33564;-77
2021/12/08 11:09:58;;;;;;;;;;;;;;;17.32;25.79;98891.31;4477555;32;34218;-80
2021/12/08 11:12:39;;;;;;;;;;;;;;;14.65;29.29;98899.22;4438510;32;35423;-80
2021/12/08 11:15:18;;;;;;;;;;;;;;;15.49;29.18;98892.06;4445623;32;34463;-79
2021/12/08 11:17:46;;;;;;;;;;;;;;;14.55;29.88;98893.13;4459035;32;31811;-83
2021/12/08 11:20:17;;;;;;;;;;;;;;;16.14;28.25;98889.38;4462639;32;35589;-79
2021/12/08 11:23:01;;;;;;;;;;;;;;;16.34;27.99;98886.28;4471715;32;33789;-81
2021/12/08 11:25:47;;;;;;;;;;;;;;;15.24;28.92;98883.91;4448836;32;33244;-81
2021/12/08 11:28:21;;;;;;;;;;;;;;;15.35;28.82;98885.47;4458783;32;32814;-80
2021/12/08 11:30:49;;;;;;;;;;;;;;;14.33;30.72;98875.63;4469943;32;34016;-80
2021/12/08 11:33:19;;;;;;;;;;;;;;;13.65;31.88;98879.87;4459629;32;34327;-81
2021/12/08 11:35:46;;;;;;;;;;;;;;;13.96;31.68;98884.81;4464290;32;35220;-79
2021/12/08 11:38:14;;;;;;;;;;;;;;;12.18;34.31;98888.91;4460408;32;33499;-82
2021/12/08 11:40:42;;;;;;;;;;;;;;;11.84;35.91;98889.41;4456994;32;34207;-79
2021/12/08 11:43:15;;;;;;;;;;;;;;;12.20;35.40;98883.38;4440616;32;34229;-81
2021/12/08 11:45:43;;;;;;;;;;;;;;;12.55;34.83;98878.19;4467429;32;33406;-82
2021/12/08 11:48:24;;;;;;;;;;;;;;;10.66;37.23;98875.22;4449060;32;31596;-77
2021/12/08 11:51:11;;;;;;;;;;;;;;;11.56;35.85;98879.56;4473400;32;34316;-76
2021/12/08 11:53:39;;;;;;;;;;;;;;;11.60;35.56;98876.44;4451011;32;33082;-81
2021/12/08 11:56:07;;;;;;;;;;;;;;;11.75;35.59;98882.22;4455882;32;33580;-82
2021/12/08 11:58:34;;;;;;;;;;;;;;;10.50;37.82;98870.38;4448697;32;32205;-78
2021/12/08 12:01:02;;;;;;;;;;;;;;;9.43;40.07;98877.72;4454971;32;35259;-79
2021/12/08 12:03:30;;;;;;;;;;;;;;;7.97;43.67;98882.44;4452901;32;33630;-83
2021/12/08 12:05:59;;;;;;;;;;;;;;;8.34;43.16;98880.37;4445724;32;34012;-80
2021/12/08 12:08:26;;;;;;;;;;;;;;;9.28;42.16;98877.22;4455087;32;33654;-85
2021/12/08 12:10:56;;;;;;;;;;;;;;;8.38;43.10;98873.91;4432954;32;34221;-82
2021/12/08 12:13:25;;;;;;;;;;;;;;;8.92;42.29;98867.72;4433744;32;34261;-83
2021/12/08 12:15:53;;;;;;;;;;;;;;;7.67;45.33;98875.84;4449185;32;33840;-83
2021/12/08 12:18:24;;;;;;;;;;;;;;;8.14;44.48;98869.47;4457693;32;32915;-83
2021/12/08 12:20:52;;;;;;;;;;;;;;;8.45;44.27;98868.91;4452113;32;33704;-80
2021/12/08 12:23:23;;;;;;;;;;;;;;;8.03;45.38;98864.16;4453576;32;32622;-80
2021/12/08 12:25:53;;;;;;;;;;;;;;;8.89;43.09;98851.13;4474298;32;33436;-80
2021/12/08 12:28:24;;;;;;;;;;;;;;;8.73;42.80;98852.38;4464327;32;33156;-87
2021/12/08 12:30:56;;;;;;;;;;;;;;;8.93;42.70;98860.59;4440375;32;33236;-85
2021/12/08 12:33:24;;;;;;;;;;;;;;;9.66;41.82;98862.47;4449533;32;32850;-85
2021/12/08 12:35:52;;;;;;;;;;;;;;;10.62;39.24;98844.34;4427185;32;34042;-85
2021/12/08 12:38:34;;;;;;;;;;;;;;;9.20;42.57;98849.44;4446741;32;30977;-85
2021/12/08 12:41:03;;;;;;;;;;;;;;;9.57;41.40;98853.38;4427994;32;34657;-78
2021/12/08 12:43:33;;;;;;;;;;;;;;;10.06;40.88;98851.00;4466549;32;32932;-76
2021/12/08 12:46:13;;;;;;;;;;;;;;;8.18;43.95;98846.09;4472139;32;33946;-80
2021/12/08 12:48:49;;;;;;;;;;;;;;;10.29;40.89;98838.31;4476756;32;34527;-84
2021/12/08 12:51:18;;;;;;;;;;;;;;;10.26;41.15;98839.44;4455962;32;32513;-86
2021/12/08 12:54:00;;;;;;;;;;;;;;;9.80;40.72;98846.06;4440867;32;33824;-84
2021/12/08 12:56:34;;;;;;;;;;;;;;;9.67;41.46;98833.91;4448421;32;34151;-85
2021/12/08 12:59:13;;;;;;;;;;;;;;;9.63;40.57;98840.47;4472068;32;33291;-83
2021/12/08 13:01:46;;;;;;;;;;;;;;;10.46;40.47;98832.34;4435519;32;31468;-83
2021/12/08 13:04:21;;;;;;;;;;;;;;;11.64;38.05;98829.59;4430021;32;34431;-84
2021/12/08 13:06:50;;;;;;;;;;;;;;;10.21;41.92;98830.09;4445924;32;34685;-82
2021/12/08 13:09:36;;;;;;;;;;;;;;;11.14;38.97;98839.66;4459396;32;31826;-82
2021/12/08 13:12:11;;;;;;;;;;;;;;;9.31;41.58;98834.22;4452534;32;33679;-83
2021/12/08 13:14:44;;;;;;;;;;;;;;;10.44;40.09;98836.97;4455610;32;33175;-80
2021/12/08 13:17:14;;;;;;;;;;;;;;;10.00;40.60;98841.69;4439207;32;34497;-81
2021/12/08 13:19:49;;;;;;;;;;;;;;;10.62;39.81;98833.63;4441279;32;32115;-82
2021/12/08 13:22:37;;;;;;;;;;;;;;;10.05;40.61;98841.28;4449149;32;32708;-81
2021/12/08 13:25:05;;;;;;;;;;;;;;;9.23;43.39;98846.50;4447795;32;33660;-81
2021/12/08 13:27:32;;;;;;;;;;;;;;;10.74;39.44;98845.91;4433350;32;33855;-83
2021/12/08 13:30:08;;;;;;;;;;;;;;;10.80;38.98;98844.53;4459683;32;32227;-83
2021/12/08 13:32:45;;;;;;;;;;;;;;;11.55;37.77;98848.34;4442984;32;33267;-83
2021/12/08 13:35:35;;;;;;;;;;;;;;;11.34;38.64;98837.81;4446348;32;35346;-83
2021/12/08 13:38:03;;;;;;;;;;;;;;;11.71;37.83;98842.41;4450736;32;34257;-80
2021/12/08 13:40:40;;;;;;;;;;;;;;;12.06;37.18;98839.09;4439701;32;32291;-79
2021/12/08 13:43:09;;;;;;;;;;;;;;;12.20;36.90;98848.50;4458582;32;33490;-83
2021/12/08 13:45:41;;;;;;;;;;;;;;;10.45;40.47;98843.16;4444535;32;33170;-82
2021/12/08 13:48:11;;;;;;;;;;;;;;;10.73;39.48;98847.75;4438861;32;33310;-82
2021/12/08 13:50:38;;;;;;;;;;;;;;;9.22;42.93;98847.50;4435518;32;32154;-83
2021/12/08 13:53:10;;;;;;;;;;;;;;;9.51;42.35;98847.72;4460462;32;35322;-81
2021/12/08 13:55:40;;;;;;;;;;;;;;;11.02;39.90;98849.63;4462023;32;33305;-82
2021/12/08 13:58:11;;;;;;;;;;;;;;;11.18;39.17;98841.06;4433148;32;33731;-85
2021/12/08 14:00:43;;;;;;;;;;;;;;;10.02;40.83;98841.56;4431063;32;33478;-85
2021/12/08 14:03:13;;;;;;;;;;;;;;;9.25;43.12;98836.56;4438776;32;32997;-85